< < Back
Terminal Aerodrome Forecast


Current Version              Previous Versions:   1  2  3  4  5  6  7  8  9  

Terminal Aerodrome Forecast

014
FTUS42 KJAX 301120
TAFJAX
TAF
KJAX 301120Z 3012/3112 VRB02KT P6SM SKC
     FM301400 21008KT P6SM FEW050
     FM301700 24010G17KT P6SM SCT050 SCT250
     FM310100 24004KT P6SM VCSH BKN050 BKN250
     FM310600 25003KT P6SM SCT250
     FM310900 27002KT 3SM BR SCT003 SCT250=



Latest METAR

389
SAUS80 KWBC 310800
MTRJAX
METAR KJAX 310756Z 26007KT 10SM BKN055 16/14 A3010 RMK AO2 SLP194
T01560139


USA.gov is the U.S. government's official web portal to all federal, state and local government web resources and services.